createdAt,value
2023-03-27T18:50:45.268Z,996.72
2023-03-27T18:51:45.257Z,996.76
2023-03-27T18:52:45.329Z,996.74
2023-03-27T18:53:45.188Z,996.73
2023-03-27T18:54:45.224Z,996.79
2023-03-27T18:55:45.183Z,996.73
2023-03-27T18:56:45.165Z,996.75
2023-03-27T18:57:45.175Z,996.76
2023-03-27T18:58:45.114Z,996.76
2023-03-27T18:59:45.167Z,996.78
2023-03-27T19:00:45.202Z,996.73
2023-03-27T19:01:45.113Z,996.75
2023-03-27T19:02:45.231Z,996.75
2023-03-27T19:03:45.075Z,996.77
2023-03-27T19:04:45.071Z,996.82
2023-03-27T19:05:45.016Z,996.82
2023-03-27T19:06:45.009Z,996.80
2023-03-27T19:07:45.364Z,996.81
2023-03-27T19:08:45.070Z,996.81
2023-03-27T19:09:44.965Z,996.80
2023-03-27T19:10:44.961Z,996.85
2023-03-27T19:11:45.019Z,996.86
2023-03-27T19:12:45.007Z,996.81
2023-03-27T19:13:45.012Z,996.84
2023-03-27T19:14:44.934Z,996.88
2023-03-27T19:15:44.913Z,996.91
2023-03-27T19:16:44.970Z,996.85
2023-03-27T19:17:45.058Z,996.86
2023-03-27T19:18:44.883Z,996.91
2023-03-27T19:19:46.537Z,996.90
2023-03-27T19:20:44.838Z,996.91
2023-03-27T19:21:44.849Z,996.91
2023-03-27T19:22:44.979Z,996.92
2023-03-27T19:23:44.798Z,996.92
2023-03-27T19:24:44.823Z,996.91
2023-03-27T19:25:44.794Z,996.93
2023-03-27T19:26:44.826Z,996.90
2023-03-27T19:27:44.782Z,996.90
2023-03-27T19:28:44.751Z,996.92
2023-03-27T19:29:44.720Z,996.91
2023-03-27T19:30:44.744Z,996.89
2023-03-27T19:31:44.715Z,996.94
2023-03-27T19:32:44.954Z,996.94
2023-03-27T19:33:44.765Z,996.94
2023-03-27T19:34:45.191Z,996.94
2023-03-27T19:35:44.768Z,996.90
2023-03-27T19:36:44.702Z,997.05
2023-03-27T19:37:44.664Z,997.03
2023-03-27T19:38:44.628Z,997.01
2023-03-27T19:39:44.677Z,997.04
2023-03-27T19:40:44.586Z,997.07
2023-03-27T19:41:44.578Z,997.05
2023-03-27T19:42:44.672Z,997.08
2023-03-27T19:43:44.593Z,997.10
2023-03-27T19:44:45.389Z,997.03
2023-03-27T19:45:44.596Z,997.06
2023-03-27T19:46:44.700Z,997.03
2023-03-27T19:47:44.588Z,997.10
2023-03-27T19:48:44.713Z,997.11
2023-03-27T19:49:44.742Z,997.08
2023-03-27T19:50:44.474Z,997.13
2023-03-27T19:51:44.445Z,997.15
2023-03-27T19:52:47.654Z,997.17
2023-03-27T19:53:45.455Z,997.14
2023-03-27T19:54:44.465Z,997.05
2023-03-27T19:55:44.410Z,997.08
2023-03-27T19:56:44.704Z,997.13
2023-03-27T19:57:44.405Z,997.11
2023-03-27T19:58:44.416Z,997.12
2023-03-27T19:59:44.380Z,997.07
2023-03-27T20:00:44.316Z,997.11
2023-03-27T20:01:44.530Z,997.14
2023-03-27T20:02:44.522Z,997.14
2023-03-27T20:03:44.418Z,997.18
2023-03-27T20:04:44.491Z,997.16
2023-03-27T20:05:44.443Z,997.20
2023-03-27T20:06:44.266Z,997.19
2023-03-27T20:07:44.894Z,997.20
2023-03-27T20:08:44.218Z,997.20
2023-03-27T20:09:44.268Z,997.13
2023-03-27T20:10:44.302Z,997.19
2023-03-27T20:11:44.431Z,997.16
2023-03-27T20:12:44.421Z,997.23
2023-03-27T20:13:55.542Z,997.17
2023-03-27T20:14:53.920Z,997.25
2023-03-27T20:15:45.407Z,997.20
2023-03-27T20:16:44.189Z,997.22
2023-03-27T20:17:44.252Z,997.27
2023-03-27T20:18:44.112Z,997.21
2023-03-27T20:19:44.091Z,997.25
2023-03-27T20:20:44.173Z,997.23
2023-03-27T20:21:44.198Z,997.27
2023-03-27T20:22:56.522Z,997.27
2023-03-27T20:23:45.370Z,997.22
2023-03-27T20:24:44.949Z,997.24
2023-03-27T20:25:44.155Z,997.23
2023-03-27T20:26:44.853Z,997.24
2023-03-27T20:27:44.169Z,997.26
2023-03-27T20:28:46.357Z,997.24
2023-03-27T20:29:44.047Z,997.22
2023-03-27T20:30:43.986Z,997.27
2023-03-27T20:31:44.262Z,997.27
2023-03-27T20:32:44.184Z,997.28
2023-03-27T20:33:44.057Z,997.28
2023-03-27T20:34:44.697Z,997.30
2023-03-27T20:35:44.534Z,997.33
2023-03-27T20:36:44.089Z,997.34
2023-03-27T20:37:43.937Z,997.32
2023-03-27T20:38:45.633Z,997.34
2023-03-27T20:39:43.841Z,997.31
2023-03-27T20:40:52.805Z,997.30
2023-03-27T20:41:44.817Z,997.31
2023-03-27T20:42:43.780Z,997.39
2023-03-27T20:43:43.956Z,997.40
2023-03-27T20:44:43.773Z,997.38
2023-03-27T20:45:43.752Z,997.38
2023-03-27T20:46:43.758Z,997.38
2023-03-27T20:47:43.832Z,997.37
2023-03-27T20:48:43.734Z,997.39
2023-03-27T20:49:44.700Z,997.44
2023-03-27T20:50:43.682Z,997.44
2023-03-27T20:51:43.692Z,997.43
2023-03-27T20:52:43.827Z,997.46
2023-03-27T20:53:43.687Z,997.48
2023-03-27T20:54:43.641Z,997.43
2023-03-27T20:55:53.164Z,997.47
2023-03-27T20:56:44.632Z,997.44
2023-03-27T20:57:43.626Z,997.42
2023-03-27T20:58:43.621Z,997.45
2023-03-27T20:59:45.589Z,997.45
2023-03-27T21:00:43.641Z,997.40
2023-03-27T21:01:43.568Z,997.43
2023-03-27T21:02:43.693Z,997.38
2023-03-27T21:03:43.555Z,997.39
2023-03-27T21:04:43.511Z,997.41
2023-03-27T21:05:43.495Z,997.37
2023-03-27T21:06:43.476Z,997.38
2023-03-27T21:07:43.586Z,997.41
2023-03-27T21:08:43.557Z,997.43
2023-03-27T21:09:43.449Z,997.46
2023-03-27T21:10:43.432Z,997.50
2023-03-27T21:11:43.471Z,997.44
2023-03-27T21:12:43.403Z,997.48
2023-03-27T21:13:43.418Z,997.47
2023-03-27T21:14:43.399Z,997.49
2023-03-27T21:15:43.417Z,997.49
2023-03-27T21:16:43.448Z,997.50
2023-03-27T21:17:43.606Z,997.54
2023-03-27T21:18:45.663Z,997.57
2023-03-27T21:19:43.323Z,997.55
2023-03-27T21:20:47.528Z,997.50
2023-03-27T21:21:43.367Z,997.56
2023-03-27T21:22:43.303Z,997.55
2023-03-27T21:23:43.757Z,997.58
2023-03-27T21:24:44.006Z,997.62
2023-03-27T21:25:43.277Z,997.61
2023-03-27T21:26:43.247Z,997.58
2023-03-27T21:27:43.210Z,997.60
2023-03-27T21:28:43.234Z,997.62
2023-03-27T21:29:43.192Z,997.62
2023-03-27T21:30:47.217Z,997.65
2023-03-27T21:31:43.218Z,997.61
2023-03-27T21:32:43.391Z,997.63
2023-03-27T21:33:43.257Z,997.62
2023-03-27T21:34:43.251Z,997.64
2023-03-27T21:35:43.397Z,997.59
2023-03-27T21:36:43.216Z,997.60
2023-03-27T21:37:43.199Z,997.63
2023-03-27T21:38:43.264Z,997.68
2023-03-27T21:39:43.263Z,997.63
2023-03-27T21:40:43.182Z,997.61
2023-03-27T21:41:43.144Z,997.65
2023-03-27T21:42:45.822Z,997.65
2023-03-27T21:43:43.351Z,997.65
2023-03-27T21:44:47.016Z,997.62
2023-03-27T21:45:44.135Z,997.59
2023-03-27T21:46:43.173Z,997.60
2023-03-27T21:47:47.476Z,997.67
2023-03-27T21:48:43.232Z,997.66
2023-03-27T21:49:43.195Z,997.64
2023-03-27T21:50:43.035Z,997.65
2023-03-27T21:51:42.917Z,997.73
2023-03-27T21:52:42.921Z,997.63
2023-03-27T21:53:42.915Z,997.64
2023-03-27T21:54:49.994Z,997.64
2023-03-27T21:55:44.014Z,997.69
2023-03-27T21:56:42.858Z,997.67
2023-03-27T21:57:42.833Z,997.73
2023-03-27T21:58:42.851Z,997.66
2023-03-27T21:59:42.812Z,997.71
2023-03-27T22:00:42.793Z,997.74
2023-03-27T22:01:42.893Z,997.71
2023-03-27T22:02:42.853Z,997.76
2023-03-27T22:03:42.802Z,997.75
2023-03-27T22:04:42.779Z,997.72
2023-03-27T22:05:42.771Z,997.72
2023-03-27T22:06:42.743Z,997.74
2023-03-27T22:07:42.715Z,997.71
2023-03-27T22:08:42.856Z,997.69
2023-03-27T22:09:42.690Z,997.73
2023-03-27T22:10:42.680Z,997.76
2023-03-27T22:11:42.653Z,997.69
2023-03-27T22:12:42.627Z,997.71
2023-03-27T22:13:42.663Z,997.72
2023-03-27T22:14:42.602Z,997.73
2023-03-27T22:15:42.671Z,997.78
2023-03-27T22:16:42.588Z,997.75
2023-03-27T22:17:43.583Z,997.71
2023-03-27T22:18:42.596Z,997.69
2023-03-27T22:19:42.573Z,997.63
2023-03-27T22:20:42.530Z,997.68
2023-03-27T22:21:42.523Z,997.70
2023-03-27T22:22:42.509Z,997.68
2023-03-27T22:23:42.582Z,997.70
2023-03-27T22:24:42.478Z,997.77
2023-03-27T22:25:42.478Z,997.72
2023-03-27T22:26:42.456Z,997.74
2023-03-27T22:27:42.448Z,997.75
2023-03-27T22:28:42.485Z,997.82
2023-03-27T22:29:42.419Z,997.84
2023-03-27T22:30:42.409Z,997.84
2023-03-27T22:31:42.473Z,997.83
2023-03-27T22:32:42.427Z,997.79
2023-03-27T22:33:42.420Z,997.81
2023-03-27T22:34:42.359Z,997.85
2023-03-27T22:35:42.507Z,997.83
2023-03-27T22:36:42.332Z,997.84
2023-03-27T22:37:42.326Z,997.82
2023-03-27T22:38:42.327Z,997.84
2023-03-27T22:39:42.285Z,997.84
2023-03-27T22:40:42.277Z,997.86
2023-03-27T22:41:42.272Z,997.83
2023-03-27T22:42:42.273Z,997.87
2023-03-27T22:43:42.331Z,997.92
2023-03-27T22:44:42.224Z,997.89
2023-03-27T22:45:42.227Z,997.90
2023-03-27T22:46:42.277Z,997.96
2023-03-27T22:47:42.287Z,997.96
2023-03-27T22:48:42.214Z,997.96
2023-03-27T22:49:42.156Z,997.99
2023-03-27T22:50:42.180Z,998.00
2023-03-27T22:51:42.152Z,997.98
2023-03-27T22:52:42.120Z,998.02
2023-03-27T22:53:42.200Z,998.01
2023-03-27T22:54:42.085Z,998.08
2023-03-27T22:55:42.233Z,998.05
2023-03-27T22:56:42.127Z,998.11
2023-03-27T22:57:42.061Z,998.08
2023-03-27T22:58:42.077Z,998.06
2023-03-27T22:59:42.151Z,998.07
2023-03-27T23:00:42.012Z,998.08
2023-03-27T23:01:42.021Z,998.03
2023-03-27T23:02:42.062Z,998.07
2023-03-27T23:03:42.126Z,998.15
2023-03-27T23:04:41.958Z,998.11
2023-03-27T23:05:41.968Z,998.12
2023-03-27T23:06:41.953Z,998.14
2023-03-27T23:07:41.938Z,998.17
2023-03-27T23:08:42.010Z,998.20
2023-03-27T23:09:41.927Z,998.19
2023-03-27T23:10:41.919Z,998.18
2023-03-27T23:11:41.915Z,998.26
2023-03-27T23:12:41.888Z,998.23
2023-03-27T23:13:41.891Z,998.22
2023-03-27T23:14:41.852Z,998.22
2023-03-27T23:15:41.826Z,998.26
2023-03-27T23:16:41.905Z,998.26
2023-03-27T23:17:41.824Z,998.28
2023-03-27T23:18:41.825Z,998.30
2023-03-27T23:19:41.793Z,998.38
2023-03-27T23:20:41.822Z,998.35
2023-03-27T23:21:41.768Z,998.38
2023-03-27T23:22:41.729Z,998.41
2023-03-27T23:23:41.760Z,998.37
2023-03-27T23:24:41.713Z,998.40
2023-03-27T23:25:41.808Z,998.44
2023-03-27T23:26:41.697Z,998.43
2023-03-27T23:27:41.672Z,998.41
2023-03-27T23:28:41.708Z,998.43
2023-03-27T23:29:41.664Z,998.40
2023-03-27T23:30:41.625Z,998.39
2023-03-27T23:31:41.655Z,998.41
2023-03-27T23:32:41.669Z,998.43
2023-03-27T23:33:41.647Z,998.42
2023-03-27T23:34:41.587Z,998.52
2023-03-27T23:35:41.669Z,998.48
2023-03-27T23:36:41.564Z,998.45
2023-03-27T23:37:41.554Z,998.47
2023-03-27T23:38:41.554Z,998.48
2023-03-27T23:39:41.554Z,998.44
2023-03-27T23:40:41.516Z,998.47
2023-03-27T23:41:41.507Z,998.50
2023-03-27T23:42:42.420Z,998.47
2023-03-27T23:43:41.591Z,998.46
2023-03-27T23:44:41.451Z,998.51
2023-03-27T23:45:41.464Z,998.54
2023-03-27T23:46:41.423Z,998.49
2023-03-27T23:47:41.438Z,998.51
2023-03-27T23:48:41.433Z,998.54
2023-03-27T23:49:41.392Z,998.57
2023-03-27T23:50:41.373Z,998.49
2023-03-27T23:51:41.357Z,998.46
2023-03-27T23:52:41.341Z,998.47
2023-03-27T23:53:41.364Z,998.46
2023-03-27T23:54:41.385Z,998.49
2023-03-27T23:55:41.331Z,998.55
2023-03-27T23:56:41.329Z,998.53
2023-03-27T23:57:41.283Z,998.56
2023-03-27T23:58:41.295Z,998.55
2023-03-27T23:59:41.276Z,998.46
